Time;durP1;ratioP1;P1;durP2;ratioP2;P2;SDS_P1;SDS_P2;PMS_P1;PMS_P2;Temp;Humidity;BMP_temperature;BMP_pressure;BME280_temperature;BME280_humidity;BME280_pressure;Samples;Min_cycle;Max_cycle;Signal;HPM_P1;HPM_P2
2022/01/19 00:35:36;;;;;;;;;;;;;;;;;;;;;
2022/01/19 00:47:50;;;;;;;;;;;;;;;;;;;;;
2022/01/19 00:50:58;;;;;;;;;;;;;;;;;;;;;
2022/01/19 01:06:20;;;;;;;;;;;;;;;;;;;;;
2022/01/19 01:39:00;;;;;;;;;;;;;;;;;;;;;
2022/01/19 01:41:39;;;;;;;;;;;;;;;;;;;;;
2022/01/19 01:47:54;;;;;;;;;;;;;;;;;;;;;
2022/01/19 01:53:40;;;;;;;;;;;;;;;;;;;;;
2022/01/19 02:42:22;;;;;;;;;;;;;;;;;;;;;
2022/01/19 02:51:22;;;;;;;;;;;4.50;99.90;;;;;;6042391;23;19918;-90
2022/01/19 04:05:20;;;;;;;;;;;;;;;;;;;;;
2022/01/19 04:20:40;;;;;;;;;;;;;;;;;;;;;
2022/01/19 04:23:45;;;;;;;;;;;;;;;;;;;;;
2022/01/19 04:37:08;;;;;;;;;;;;;;;;;;;;;
2022/01/19 05:08:09;;;;;;;;;;;;;;;;;;;;;
2022/01/19 05:20:27;;;;;;;;;;;;;;;;;;;;;
2022/01/19 05:23:23;;;;;;;;;;;;;;;;;;;;;
2022/01/19 05:32:14;;;;;;;;;;;;;;;;;;;;;
2022/01/19 05:38:34;;;;;;;;;;;;;;;;;;;;;
2022/01/19 05:45:00;;;;;;;;;;;;;;;;;;;;;
2022/01/19 05:47:48;;;;;;;;;;;;;;;;;;;;;
2022/01/19 05:53:53;;;;;;;;;;;;;;;;;;;;;
2022/01/19 05:56:55;;;;;;;;;;;;;;;;;;;;;
2022/01/19 06:03:19;;;;;;;;;;;;;;;;;;;;;
2022/01/19 06:12:04;;;;;;;;;;;;;;;;;;;;;
2022/01/19 06:15:00;;;;;;;;;;;;;;;;;;;;;
2022/01/19 06:18:09;;;;;;;;;;;;;;;;;;;;;
2022/01/19 06:33:14;;;;;;;;;;;;;;;;;;;;;
2022/01/19 06:36:16;;;;;;;;;;;;;;;;;;;;;
2022/01/19 06:54:57;;;;;;;;;;;;;;;;;;;;;
2022/01/19 07:01:17;;;;;;;;;;;;;;;;;;;;;
2022/01/19 07:10:34;;;;;;;;;;;;;;;;;;;;;
2022/01/19 07:22:51;;;;;;;;;;;;;;;;;;;;;
2022/01/19 07:29:08;;;;;;;;;;;;;;;;;;;;;
2022/01/19 07:32:33;;;;;;;;;;;;;;;;;;;;;
2022/01/19 07:41:55;;;;;;;;;;;;;;;;;;;;;
2022/01/19 07:54:58;;;;;;;;;;;;;;;;;;;;;
2022/01/19 08:17:31;;;;;;;;;;;3.90;99.90;;;;;;5859531;24;20405;-90
2022/01/19 08:37:15;;;;;;;;;;;;;;;;;;;;;
2022/01/19 09:00:21;;;;;;;;;;;;;;;;;;;;;
2022/01/19 09:23:35;;;;;;;;;;;;;;;;;;;;;
2022/01/19 10:27:45;;;;;;;;;;;;;;;;;;;;;
2022/01/19 10:37:31;;;;;;;;;;;;;;;;;;;;;
2022/01/19 11:51:56;;;;;;;;;;;;;;;;;;;;;
2022/01/19 13:23:34;;;;;;;;;;;;;;;;;;;;;
2022/01/19 13:29:29;;;;;;;;;;;;;;;;;;;;;
2022/01/19 13:36:20;;;;;;;;;;;;;;;;;;;;;
2022/01/19 13:38:44;;;;;;;;;;;;;;;;;;;;;
2022/01/19 13:45:05;;;;;;;;;;;;;;;;;;;;;
2022/01/19 13:50:46;;;;;;;;;;;;;;;;;;;;;
2022/01/19 13:53:53;;;;;;;;;;;;;;;;;;;;;
2022/01/19 14:03:27;;;;;;;;;;;6.80;99.90;;;;;;6190342;23;19925;-92
2022/01/19 14:12:30;;;;;;;;;;;5.60;99.90;;;;;;6023322;23;19933;-92
2022/01/19 14:15:10;;;;;;;;;;;;;;;;;;;;;
2022/01/19 14:17:47;;;;;;;;;;;;;;;;;;;;;
2022/01/19 14:20:23;;;;;;;;;;;6.10;99.90;;;;;;6162878;23;20218;-91
2022/01/19 14:23:21;;;;;;;;;;;;;;;;;;;;;
2022/01/19 14:25:59;;;;;;;;;;;;;;;;;;;;;
2022/01/19 14:28:40;;;;;;;;;;;5.60;99.90;;;;;;6163100;23;19916;-91
2022/01/19 14:31:14;;;;;;;;;;;6.20;99.90;;;;;;6137171;23;19920;-90
2022/01/19 14:34:09;;;;;;;;;;;4.90;99.90;;;;;;6160622;23;19916;-89
2022/01/19 14:37:05;;;;;;;;;;;;;;;;;;;;;
2022/01/19 14:39:47;;;;;;;;;;;5.90;99.90;;;;;;6162695;23;20306;-90
2022/01/19 14:42:18;;;;;;;;;;;5.10;99.90;;;;;;6160575;23;19920;-90
2022/01/19 14:45:16;;;;;;;;;;;4.80;99.90;;;;;;6136213;23;19923;-91
2022/01/19 14:47:46;;;;;;;;;;;4.50;99.90;;;;;;6163159;23;20030;-89
2022/01/19 14:50:53;;;;;;;;;;;5.10;99.90;;;;;;6136045;23;19916;-91
2022/01/19 14:53:30;;;;;;;;;;;;;;;;;;;;;
2022/01/19 14:56:01;;;;;;;;;;;4.70;99.90;;;;;;6162851;23;19917;-89
2022/01/19 14:58:36;;;;;;;;;;;5.70;99.90;;;;;;6134991;23;19921;-90
2022/01/19 15:01:12;;;;;;;;;;;6.00;99.90;;;;;;6160183;23;19928;-91
2022/01/19 15:03:50;;;;;;;;;;;;;;;;;;;;;
2022/01/19 15:09:32;;;;;;;;;;;5.50;99.90;;;;;;6182876;23;19916;-89
2022/01/19 15:12:00;;;;;;;;;;;5.20;99.90;;;;;;6136265;23;20309;-92
2022/01/19 15:14:55;;;;;;;;;;;4.90;99.90;;;;;;6134744;23;19923;-90
2022/01/19 15:17:26;;;;;;;;;;;6.20;99.90;;;;;;6155918;23;19923;-90
2022/01/19 15:19:54;;;;;;;;;;;4.70;99.90;;;;;;6135666;23;20335;-90
2022/01/19 15:22:40;;;;;;;;;;;4.30;99.90;;;;;;6135040;23;20329;-88
2022/01/19 15:25:06;;;;;;;;;;;5.30;99.90;;;;;;6136517;23;19916;-91
2022/01/19 15:28:01;;;;;;;;;;;5.00;99.90;;;;;;6135230;23;19921;-91
2022/01/19 15:34:02;;;;;;;;;;;5.50;99.90;;;;;;6156968;23;19917;-91
2022/01/19 15:36:58;;;;;;;;;;;;;;;;;;;;;
2022/01/19 15:40:13;;;;;;;;;;;;;;;;;;;;;
2022/01/19 15:45:52;;;;;;;;;;;5.20;99.90;;;;;;6144953;23;19916;-89
2022/01/19 15:48:43;;;;;;;;;;;5.30;99.90;;;;;;6156530;23;20213;-89
2022/01/19 15:53:59;;;;;;;;;;;5.30;99.90;;;;;;6162638;23;19986;-90
2022/01/19 15:59:23;;;;;;;;;;;5.50;99.90;;;;;;6141134;23;19931;-91
2022/01/19 16:05:22;;;;;;;;;;;5.60;99.90;;;;;;6141372;23;20269;-91
2022/01/19 16:41:30;;;;;;;;;;;6.00;99.90;;;;;;6244324;23;20344;-90
2022/01/19 16:44:33;;;;;;;;;;;6.10;99.90;;;;;;6165793;23;19923;-92
2022/01/19 16:47:15;;;;;;;;;;;;;;;;;;;;;
2022/01/19 16:56:43;;;;;;;;;;;;;;;;;;;;;
2022/01/19 16:59:43;;;;;;;;;;;6.20;99.90;;;;;;6275538;22;19994;-92
2022/01/19 17:03:06;;;;;;;;;;;7.30;99.90;;;;;;6226030;22;19939;-90
2022/01/19 17:11:44;;;;;;;;;;;;;;;;;;;;;
2022/01/19 17:14:23;;;;;;;;;;;7.40;99.90;;;;;;6227923;22;20316;-91
2022/01/19 17:20:37;;;;;;;;;;;;;;;;;;;;;
2022/01/19 17:27:27;;;;;;;;;;;5.60;99.90;;;;;;6158498;23;20190;-92
2022/01/19 17:30:26;;;;;;;;;;;;;;;;;;;;;
2022/01/19 17:39:38;;;;;;;;;;;4.70;99.90;;;;;;6230742;22;19919;-91
2022/01/19 17:49:14;;;;;;;;;;;;;;;;;;;;;
2022/01/19 17:58:58;;;;;;;;;;;;;;;;;;;;;
2022/01/19 18:01:46;;;;;;;;;;;;;;;;;;;;;
2022/01/19 18:10:16;;;;;;;;;;;;;;;;;;;;;
2022/01/19 18:16:14;;;;;;;;;;;5.10;99.90;;;;;;6037753;23;19988;-92
2022/01/19 18:22:04;;;;;;;;;;;;;;;;;;;;;
2022/01/19 18:25:00;;;;;;;;;;;;;;;;;;;;;
2022/01/19 18:27:33;;;;;;;;;;;5.10;99.90;;;;;;6245548;22;20325;-92
2022/01/19 18:30:12;;;;;;;;;;;6.10;99.90;;;;;;6201836;22;20252;-90
2022/01/19 18:32:38;;;;;;;;;;;5.20;99.90;;;;;;6225844;22;19915;-87
2022/01/19 18:35:42;;;;;;;;;;;;;;;;;;;;;
2022/01/19 18:38:24;;;;;;;;;;;;;;;;;;;;;
2022/01/19 18:44:31;;;;;;;;;;;;;;;;;;;;;
2022/01/19 18:47:01;;;;;;;;;;;4.80;99.90;;;;;;6196123;23;19916;-90
2022/01/19 18:49:42;;;;;;;;;;;4.40;99.90;;;;;;6169738;23;19955;-90
2022/01/19 18:52:37;;;;;;;;;;;;;;;;;;;;;
2022/01/19 18:55:20;;;;;;;;;;;4.80;99.90;;;;;;6219221;23;19950;-90
2022/01/19 18:57:51;;;;;;;;;;;4.60;99.90;;;;;;6169529;23;19950;-90
2022/01/19 19:00:17;;;;;;;;;;;5.30;99.90;;;;;;6165238;23;19916;-89
2022/01/19 19:02:46;;;;;;;;;;;4.80;99.90;;;;;;6192423;23;19943;-89
2022/01/19 19:05:21;;;;;;;;;;;5.80;99.90;;;;;;6165654;23;19916;-90
2022/01/19 19:07:47;;;;;;;;;;;5.70;99.90;;;;;;6168435;23;19923;-90
2022/01/19 19:10:26;;;;;;;;;;;5.00;99.90;;;;;;6168995;23;19915;-89
2022/01/19 19:13:03;;;;;;;;;;;5.60;99.90;;;;;;6171366;23;19999;-91
2022/01/19 19:15:40;;;;;;;;;;;5.10;99.90;;;;;;6193074;23;20316;-90
2022/01/19 19:18:05;;;;;;;;;;;4.90;99.90;;;;;;6194034;23;19916;-87
2022/01/19 19:20:31;;;;;;;;;;;5.60;99.90;;;;;;6167934;23;19951;-88
2022/01/19 19:22:59;;;;;;;;;;;5.40;99.90;;;;;;6168341;23;19926;-90
2022/01/19 19:25:25;;;;;;;;;;;4.70;99.90;;;;;;6218740;23;19915;-89
2022/01/19 19:27:51;;;;;;;;;;;4.50;99.90;;;;;;6218021;23;19993;-90
2022/01/19 19:30:19;;;;;;;;;;;4.90;99.90;;;;;;6193247;23;19916;-89
2022/01/19 19:32:55;;;;;;;;;;;;;;;;;;;;;
2022/01/19 19:35:41;;;;;;;;;;;5.00;99.90;;;;;;6192717;23;20315;-90
2022/01/19 19:38:07;;;;;;;;;;;4.10;99.90;;;;;;6190255;23;19916;-89
2022/01/19 19:40:40;;;;;;;;;;;4.10;99.90;;;;;;6183922;23;20324;-90
2022/01/19 19:43:06;;;;;;;;;;;3.80;99.90;;;;;;6191912;23;19962;-89
2022/01/19 19:45:31;;;;;;;;;;;3.80;99.90;;;;;;6217629;23;19919;-88
2022/01/19 19:48:00;;;;;;;;;;;3.80;99.90;;;;;;6192534;23;19923;-88
2022/01/19 19:50:26;;;;;;;;;;;4.10;99.90;;;;;;6192946;23;19922;-88
2022/01/19 19:52:52;;;;;;;;;;;4.00;99.90;;;;;;6218481;23;20233;-89
2022/01/19 19:55:18;;;;;;;;;;;3.80;99.90;;;;;;6193344;23;19923;-89
2022/01/19 19:57:46;;;;;;;;;;;4.20;99.90;;;;;;6193820;23;19977;-89
2022/01/19 20:00:13;;;;;;;;;;;4.10;99.90;;;;;;6193622;23;19920;-90
2022/01/19 20:02:39;;;;;;;;;;;3.60;99.90;;;;;;6218431;23;19926;-89
2022/01/19 20:05:04;;;;;;;;;;;3.50;99.90;;;;;;6193060;23;19915;-89
2022/01/19 20:07:30;;;;;;;;;;;3.50;99.90;;;;;;6193134;23;20029;-88
2022/01/19 20:09:56;;;;;;;;;;;4.10;99.90;;;;;;6218536;23;20240;-89
2022/01/19 20:12:21;;;;;;;;;;;4.40;99.90;;;;;;6192675;23;20243;-88
2022/01/19 20:14:47;;;;;;;;;;;3.80;99.90;;;;;;6192845;23;19922;-89
2022/01/19 20:17:15;;;;;;;;;;;4.60;99.90;;;;;;6193705;23;19970;-89
2022/01/19 20:19:44;;;;;;;;;;;4.70;99.90;;;;;;6194077;23;20096;-89
2022/01/19 20:22:12;;;;;;;;;;;2.50;99.90;;;;;;6192658;23;19916;-88
2022/01/19 20:24:45;;;;;;;;;;;3.70;99.90;;;;;;6192684;23;19990;-88
2022/01/19 20:27:11;;;;;;;;;;;2.80;99.90;;;;;;6192892;23;20379;-87
2022/01/19 20:29:39;;;;;;;;;;;4.90;99.90;;;;;;6192386;23;19915;-88
2022/01/19 20:34:51;;;;;;;;;;;3.20;99.90;;;;;;6222916;23;19926;-89
2022/01/19 20:37:27;;;;;;;;;;;4.50;99.90;;;;;;6193124;23;20279;-90
2022/01/19 20:40:00;;;;;;;;;;;2.70;99.90;;;;;;6194895;23;19946;-90
2022/01/19 20:42:31;;;;;;;;;;;3.10;99.90;;;;;;6192447;23;20359;-89
2022/01/19 20:44:56;;;;;;;;;;;3.40;99.90;;;;;;6193446;23;19947;-89
2022/01/19 20:47:22;;;;;;;;;;;2.90;99.90;;;;;;6218183;23;20398;-89
2022/01/19 20:50:17;;;;;;;;;;;;;;;;;;;;;
2022/01/19 20:53:21;;;;;;;;;;;;;;;;;;;;;
2022/01/19 20:55:47;;;;;;;;;;;2.50;99.90;;;;;;6263257;22;19952;-89
2022/01/19 20:58:13;;;;;;;;;;;3.60;99.90;;;;;;6192692;22;20350;-88
2022/01/19 21:00:39;;;;;;;;;;;4.00;99.90;;;;;;6192766;23;19923;-89
2022/01/19 21:03:05;;;;;;;;;;;3.40;99.90;;;;;;6192756;23;20338;-92
2022/01/19 21:05:38;;;;;;;;;;;3.60;99.90;;;;;;6194625;23;19915;-89
2022/01/19 21:08:04;;;;;;;;;;;2.30;99.90;;;;;;6220101;23;19916;-88
2022/01/19 21:10:29;;;;;;;;;;;2.50;99.90;;;;;;6195114;23;19959;-89
2022/01/19 21:13:05;;;;;;;;;;;2.50;99.90;;;;;;6220287;23;19916;-90
2022/01/19 21:15:53;;;;;;;;;;;3.30;99.90;;;;;;6195307;23;19974;-91
2022/01/19 21:18:42;;;;;;;;;;;2.50;99.90;;;;;;6222756;22;19942;-90
2022/01/19 21:21:07;;;;;;;;;;;3.30;99.90;;;;;;6196733;23;19915;-89
2022/01/19 21:23:33;;;;;;;;;;;2.70;99.90;;;;;;6194618;23;20154;-87
2022/01/19 21:26:03;;;;;;;;;;;3.30;99.90;;;;;;6194495;23;19969;-88
2022/01/19 21:28:36;;;;;;;;;;;2.90;99.90;;;;;;6195089;22;19919;-89
2022/01/19 21:31:02;;;;;;;;;;;2.60;99.90;;;;;;6195832;23;19919;-89
2022/01/19 21:33:27;;;;;;;;;;;2.90;99.90;;;;;;6194530;23;19916;-87
2022/01/19 21:35:56;;;;;;;;;;;2.70;99.90;;;;;;6194309;23;19927;-89
2022/01/19 21:38:24;;;;;;;;;;;2.30;99.90;;;;;;6194434;22;20406;-89
2022/01/19 21:40:57;;;;;;;;;;;2.80;99.90;;;;;;6195152;23;20204;-89
2022/01/19 21:43:32;;;;;;;;;;;;;;;;;;;;;
2022/01/19 21:46:11;;;;;;;;;;;;;;;;;;;;;
2022/01/19 21:48:37;;;;;;;;;;;2.00;99.90;;;;;;6223798;22;19977;-90
2022/01/19 21:51:10;;;;;;;;;;;3.10;99.90;;;;;;6197057;23;19916;-90
2022/01/19 21:53:35;;;;;;;;;;;1.40;99.90;;;;;;6195466;23;19915;-89
2022/01/19 21:56:03;;;;;;;;;;;1.50;99.90;;;;;;6219806;23;19958;-89
2022/01/19 21:58:36;;;;;;;;;;;1.30;99.90;;;;;;6194855;22;19922;-90
2022/01/19 22:01:02;;;;;;;;;;;1.70;99.90;;;;;;6194355;23;19946;-92
2022/01/19 22:03:30;;;;;;;;;;;3.50;99.90;;;;;;6194620;23;19920;-89
2022/01/19 22:05:55;;;;;;;;;;;1.90;99.90;;;;;;6220143;23;19970;-89
2022/01/19 22:08:21;;;;;;;;;;;2.00;99.90;;;;;;6194198;22;19919;-88
2022/01/19 22:10:47;;;;;;;;;;;3.30;99.90;;;;;;6194240;23;19916;-89
2022/01/19 22:13:15;;;;;;;;;;;2.40;99.90;;;;;;6194318;23;19915;-90
2022/01/19 22:15:41;;;;;;;;;;;2.10;99.90;;;;;;6193662;23;19919;-90
2022/01/19 22:21:03;;;;;;;;;;;2.20;99.90;;;;;;6207402;23;19922;-90
2022/01/19 22:23:49;;;;;;;;;;;1.10;99.90;;;;;;6195536;23;19920;-89
2022/01/19 22:26:14;;;;;;;;;;;2.90;99.90;;;;;;6223015;23;19916;-88
2022/01/19 22:28:48;;;;;;;;;;;2.10;99.90;;;;;;6219422;23;19916;-90
2022/01/19 22:31:23;;;;;;;;;;;;;;;;;;;;;
2022/01/19 22:33:59;;;;;;;;;;;;;;;;;;;;;
2022/01/19 22:36:46;;;;;;;;;;;;;;;;;;;;;
2022/01/19 22:42:41;;;;;;;;;;;1.80;99.90;;;;;;6234038;22;19938;-90
2022/01/19 22:45:26;;;;;;;;;;;3.30;99.90;;;;;;6206060;22;19957;-89
2022/01/19 22:47:54;;;;;;;;;;;1.90;99.90;;;;;;6199688;22;20236;-90
2022/01/19 22:50:33;;;;;;;;;;;;;;;;;;;;;
2022/01/19 22:53:01;;;;;;;;;;;3.60;99.90;;;;;;6226983;22;20319;-90
2022/01/19 22:55:27;;;;;;;;;;;0.80;99.90;;;;;;6199015;22;19966;-88
2022/01/19 22:57:52;;;;;;;;;;;2.70;99.90;;;;;;6198722;22;19955;-87
2022/01/19 23:00:25;;;;;;;;;;;1.70;99.90;;;;;;6198864;22;19935;-89
2022/01/19 23:02:50;;;;;;;;;;;1.30;99.90;;;;;;6199452;22;19930;-89
2022/01/19 23:05:16;;;;;;;;;;;2.20;99.90;;;;;;6199157;22;19915;-89
2022/01/19 23:07:42;;;;;;;;;;;2.30;99.90;;;;;;6199084;22;19919;-89
2022/01/19 23:10:38;;;;;;;;;;;;;;;;;;;;;
2022/01/19 23:13:23;;;;;;;;;;;2.10;99.90;;;;;;6226110;22;19915;-89
2022/01/19 23:15:53;;;;;;;;;;;3.30;99.90;;;;;;6199682;22;19915;-90
2022/01/19 23:18:22;;;;;;;;;;;2.90;99.90;;;;;;6199556;22;20246;-89
2022/01/19 23:20:56;;;;;;;;;;;2.80;99.90;;;;;;6198671;22;19919;-89
2022/01/19 23:23:24;;;;;;;;;;;2.60;99.90;;;;;;6199633;22;19923;-87
2022/01/19 23:25:50;;;;;;;;;;;3.80;99.90;;;;;;6200044;22;19967;-89
2022/01/19 23:28:18;;;;;;;;;;;2.50;99.90;;;;;;6199029;22;20308;-89
2022/01/19 23:31:01;;;;;;;;;;;2.70;99.90;;;;;;6200187;22;19962;-90
2022/01/19 23:33:27;;;;;;;;;;;3.50;99.90;;;;;;6250775;22;20246;-88
2022/01/19 23:35:59;;;;;;;;;;;3.70;99.90;;;;;;6200331;22;19947;-89
2022/01/19 23:49:29;;;;;;;;;;;3.70;99.90;;;;;;6228294;22;19964;-88
2022/01/19 23:51:55;;;;;;;;;;;3.70;99.90;;;;;;6200079;22;19915;-88
2022/01/19 23:54:23;;;;;;;;;;;3.20;99.90;;;;;;6225094;22;19915;-88
2022/01/19 23:57:10;;;;;;;;;;;3.10;99.90;;;;;;6250960;22;19930;-89
2022/01/19 23:59:41;;;;;;;;;;;3.20;99.90;;;;;;6228517;22;19922;-88
